sensor_id;sensor_type;location;lat;lon;timestamp;temperature;humidity
13223;DHT22;6676;45.192;5.722;2023-07-20T00:01:16;25.10;95.70
13223;DHT22;6676;45.192;5.722;2023-07-20T00:04:07;25.00;95.50
13223;DHT22;6676;45.192;5.722;2023-07-20T00:06:59;24.90;96.00
13223;DHT22;6676;45.192;5.722;2023-07-20T00:09:50;24.90;96.00
13223;DHT22;6676;45.192;5.722;2023-07-20T00:12:42;24.90;96.00
13223;DHT22;6676;45.192;5.722;2023-07-20T00:15:35;24.90;96.20
13223;DHT22;6676;45.192;5.722;2023-07-20T00:18:27;25.00;96.00
13223;DHT22;6676;45.192;5.722;2023-07-20T00:21:18;24.90;96.20
13223;DHT22;6676;45.192;5.722;2023-07-20T00:24:09;24.80;96.50
13223;DHT22;6676;45.192;5.722;2023-07-20T00:29:44;24.90;96.40
13223;DHT22;6676;45.192;5.722;2023-07-20T00:32:36;24.80;96.60
13223;DHT22;6676;45.192;5.722;2023-07-20T00:35:29;24.80;96.90
13223;DHT22;6676;45.192;5.722;2023-07-20T00:38:21;24.70;97.00
13223;DHT22;6676;45.192;5.722;2023-07-20T00:41:12;24.70;97.20
13223;DHT22;6676;45.192;5.722;2023-07-20T00:44:07;24.70;97.20
13223;DHT22;6676;45.192;5.722;2023-07-20T00:49:40;24.60;97.10
13223;DHT22;6676;45.192;5.722;2023-07-20T00:55:12;24.60;97.50
13223;DHT22;6676;45.192;5.722;2023-07-20T00:58:04;24.50;97.60
13223;DHT22;6676;45.192;5.722;2023-07-20T01:00:56;24.50;97.30
13223;DHT22;6676;45.192;5.722;2023-07-20T01:03:48;24.40;97.60
13223;DHT22;6676;45.192;5.722;2023-07-20T01:06:45;24.40;97.80
13223;DHT22;6676;45.192;5.722;2023-07-20T01:09:38;24.40;97.90
13223;DHT22;6676;45.192;5.722;2023-07-20T01:15:11;24.20;98.10
13223;DHT22;6676;45.192;5.722;2023-07-20T01:18:03;24.20;98.10
13223;DHT22;6676;45.192;5.722;2023-07-20T01:20:57;24.20;98.10
13223;DHT22;6676;45.192;5.722;2023-07-20T01:24:03;24.20;98.60
13223;DHT22;6676;45.192;5.722;2023-07-20T01:27:12;24.20;98.70
13223;DHT22;6676;45.192;5.722;2023-07-20T01:33:06;24.00;99.00
13223;DHT22;6676;45.192;5.722;2023-07-20T01:36:00;24.00;99.10
13223;DHT22;6676;45.192;5.722;2023-07-20T01:38:52;23.90;99.30
13223;DHT22;6676;45.192;5.722;2023-07-20T01:41:44;23.90;99.70
13223;DHT22;6676;45.192;5.722;2023-07-20T01:44:38;23.90;99.80
13223;DHT22;6676;45.192;5.722;2023-07-20T01:47:29;23.80;99.80
13223;DHT22;6676;45.192;5.722;2023-07-20T01:50:21;23.80;99.90
13223;DHT22;6676;45.192;5.722;2023-07-20T01:53:14;23.80;99.90
13223;DHT22;6676;45.192;5.722;2023-07-20T01:56:05;23.80;99.90
13223;DHT22;6676;45.192;5.722;2023-07-20T02:01:36;23.70;99.90
13223;DHT22;6676;45.192;5.722;2023-07-20T02:07:06;23.70;99.90
13223;DHT22;6676;45.192;5.722;2023-07-20T02:09:57;23.70;99.90
13223;DHT22;6676;45.192;5.722;2023-07-20T02:12:48;23.60;99.90
13223;DHT22;6676;45.192;5.722;2023-07-20T02:15:40;23.60;99.90
13223;DHT22;6676;45.192;5.722;2023-07-20T02:18:32;23.60;99.90
13223;DHT22;6676;45.192;5.722;2023-07-20T02:21:23;23.50;99.90
13223;DHT22;6676;45.192;5.722;2023-07-20T02:24:15;23.50;99.90
13223;DHT22;6676;45.192;5.722;2023-07-20T02:29:47;23.40;99.90
13223;DHT22;6676;45.192;5.722;2023-07-20T02:32:38;23.40;99.90
13223;DHT22;6676;45.192;5.722;2023-07-20T02:38:08;23.40;99.90
13223;DHT22;6676;45.192;5.722;2023-07-20T02:40:59;23.30;99.90
13223;DHT22;6676;45.192;5.722;2023-07-20T02:43:50;23.30;99.90
13223;DHT22;6676;45.192;5.722;2023-07-20T02:49:21;23.10;99.90
13223;DHT22;6676;45.192;5.722;2023-07-20T02:52:12;23.00;99.90
13223;DHT22;6676;45.192;5.722;2023-07-20T02:57:43;23.00;99.90
13223;DHT22;6676;45.192;5.722;2023-07-20T03:00:34;22.80;99.90
13223;DHT22;6676;45.192;5.722;2023-07-20T03:03:25;22.70;99.90
13223;DHT22;6676;45.192;5.722;2023-07-20T03:06:17;22.60;99.90
13223;DHT22;6676;45.192;5.722;2023-07-20T03:09:09;22.60;99.90
13223;DHT22;6676;45.192;5.722;2023-07-20T03:14:39;22.60;99.90
13223;DHT22;6676;45.192;5.722;2023-07-20T03:17:31;22.70;99.90
13223;DHT22;6676;45.192;5.722;2023-07-20T03:23:01;22.70;99.90
13223;DHT22;6676;45.192;5.722;2023-07-20T03:28:31;22.60;99.90
13223;DHT22;6676;45.192;5.722;2023-07-20T03:31:23;22.60;99.90
13223;DHT22;6676;45.192;5.722;2023-07-20T03:34:14;22.60;99.90
13223;DHT22;6676;45.192;5.722;2023-07-20T03:39:45;22.50;99.90
13223;DHT22;6676;45.192;5.722;2023-07-20T03:42:36;22.60;99.90
13223;DHT22;6676;45.192;5.722;2023-07-20T03:45:28;22.40;99.90
13223;DHT22;6676;45.192;5.722;2023-07-20T03:48:21;22.40;99.90
13223;DHT22;6676;45.192;5.722;2023-07-20T03:51:13;22.30;99.90
13223;DHT22;6676;45.192;5.722;2023-07-20T03:54:05;22.20;99.90
13223;DHT22;6676;45.192;5.722;2023-07-20T03:56:57;22.10;99.90
13223;DHT22;6676;45.192;5.722;2023-07-20T03:59:50;22.10;99.90
13223;DHT22;6676;45.192;5.722;2023-07-20T04:02:41;22.00;99.90
13223;DHT22;6676;45.192;5.722;2023-07-20T04:08:11;21.90;99.90
13223;DHT22;6676;45.192;5.722;2023-07-20T04:11:03;21.80;99.90
13223;DHT22;6676;45.192;5.722;2023-07-20T04:13:54;21.80;99.90
13223;DHT22;6676;45.192;5.722;2023-07-20T04:16:47;21.90;99.90
13223;DHT22;6676;45.192;5.722;2023-07-20T04:19:39;21.80;99.90
13223;DHT22;6676;45.192;5.722;2023-07-20T04:22:30;21.70;99.90
13223;DHT22;6676;45.192;5.722;2023-07-20T04:25:22;21.70;99.90
13223;DHT22;6676;45.192;5.722;2023-07-20T04:28:14;21.60;99.90
13223;DHT22;6676;45.192;5.722;2023-07-20T04:33:52;21.50;99.90
13223;DHT22;6676;45.192;5.722;2023-07-20T04:36:44;21.50;99.90
13223;DHT22;6676;45.192;5.722;2023-07-20T04:39:36;21.50;99.90
13223;DHT22;6676;45.192;5.722;2023-07-20T04:42:29;21.50;99.90
13223;DHT22;6676;45.192;5.722;2023-07-20T04:48:06;21.50;99.90
13223;DHT22;6676;45.192;5.722;2023-07-20T04:50:57;21.50;99.90
13223;DHT22;6676;45.192;5.722;2023-07-20T04:53:48;21.50;99.90
13223;DHT22;6676;45.192;5.722;2023-07-20T04:56:39;21.40;99.90
13223;DHT22;6676;45.192;5.722;2023-07-20T04:59:34;21.40;99.90
13223;DHT22;6676;45.192;5.722;2023-07-20T05:02:25;21.30;99.90
13223;DHT22;6676;45.192;5.722;2023-07-20T05:07:56;21.40;99.90
13223;DHT22;6676;45.192;5.722;2023-07-20T05:10:47;21.50;99.90
13223;DHT22;6676;45.192;5.722;2023-07-20T05:13:39;21.50;99.90
13223;DHT22;6676;45.192;5.722;2023-07-20T05:16:30;21.50;99.90
13223;DHT22;6676;45.192;5.722;2023-07-20T05:19:23;21.50;99.90
13223;DHT22;6676;45.192;5.722;2023-07-20T05:24:54;21.50;99.90
13223;DHT22;6676;45.192;5.722;2023-07-20T05:27:45;21.40;99.90
13223;DHT22;6676;45.192;5.722;2023-07-20T05:33:16;21.40;99.90
13223;DHT22;6676;45.192;5.722;2023-07-20T05:36:08;21.50;99.90
13223;DHT22;6676;45.192;5.722;2023-07-20T05:38:59;21.60;99.90
13223;DHT22;6676;45.192;5.722;2023-07-20T05:41:51;21.60;99.90
13223;DHT22;6676;45.192;5.722;2023-07-20T05:44:42;21.60;99.90
13223;DHT22;6676;45.192;5.722;2023-07-20T05:47:34;21.60;99.90
13223;DHT22;6676;45.192;5.722;2023-07-20T05:50:25;21.70;99.90
13223;DHT22;6676;45.192;5.722;2023-07-20T05:53:17;21.60;99.90
13223;DHT22;6676;45.192;5.722;2023-07-20T05:56:08;21.60;99.90
13223;DHT22;6676;45.192;5.722;2023-07-20T05:59:00;21.70;99.90
13223;DHT22;6676;45.192;5.722;2023-07-20T06:01:52;21.70;99.90
13223;DHT22;6676;45.192;5.722;2023-07-20T06:07:24;21.60;99.90
13223;DHT22;6676;45.192;5.722;2023-07-20T06:12:54;21.60;99.90
13223;DHT22;6676;45.192;5.722;2023-07-20T06:15:46;21.50;99.90
13223;DHT22;6676;45.192;5.722;2023-07-20T06:18:37;21.50;99.90
13223;DHT22;6676;45.192;5.722;2023-07-20T06:21:29;21.50;99.90
13223;DHT22;6676;45.192;5.722;2023-07-20T06:24:20;21.60;99.90
13223;DHT22;6676;45.192;5.722;2023-07-20T06:27:12;21.60;99.90
13223;DHT22;6676;45.192;5.722;2023-07-20T06:32:44;21.60;99.90
13223;DHT22;6676;45.192;5.722;2023-07-20T06:38:14;21.80;99.90
13223;DHT22;6676;45.192;5.722;2023-07-20T06:43:46;21.90;99.90
13223;DHT22;6676;45.192;5.722;2023-07-20T06:46:38;21.80;99.90
13223;DHT22;6676;45.192;5.722;2023-07-20T06:52:09;21.90;99.90
13223;DHT22;6676;45.192;5.722;2023-07-20T06:57:40;21.80;99.90
13223;DHT22;6676;45.192;5.722;2023-07-20T07:00:33;21.90;99.90
13223;DHT22;6676;45.192;5.722;2023-07-20T07:03:25;22.00;99.90
13223;DHT22;6676;45.192;5.722;2023-07-20T07:06:17;22.10;99.90
13223;DHT22;6676;45.192;5.722;2023-07-20T07:09:08;22.00;99.90
13223;DHT22;6676;45.192;5.722;2023-07-20T07:12:00;22.00;99.90
13223;DHT22;6676;45.192;5.722;2023-07-20T07:17:31;22.30;99.90
13223;DHT22;6676;45.192;5.722;2023-07-20T07:20:24;22.30;99.90
13223;DHT22;6676;45.192;5.722;2023-07-20T07:23:16;22.40;99.90
13223;DHT22;6676;45.192;5.722;2023-07-20T07:26:08;22.50;99.90
13223;DHT22;6676;45.192;5.722;2023-07-20T07:28:59;22.60;99.90
13223;DHT22;6676;45.192;5.722;2023-07-20T07:31:50;22.70;99.90
13223;DHT22;6676;45.192;5.722;2023-07-20T07:34:44;22.80;99.90
13223;DHT22;6676;45.192;5.722;2023-07-20T07:37:37;22.80;99.90
13223;DHT22;6676;45.192;5.722;2023-07-20T07:40:29;22.80;99.90
13223;DHT22;6676;45.192;5.722;2023-07-20T07:43:21;22.90;99.90
13223;DHT22;6676;45.192;5.722;2023-07-20T07:48:51;23.00;99.90
13223;DHT22;6676;45.192;5.722;2023-07-20T07:51:42;23.00;99.90
13223;DHT22;6676;45.192;5.722;2023-07-20T07:54:34;23.10;99.90
13223;DHT22;6676;45.192;5.722;2023-07-20T07:57:26;23.20;99.90
13223;DHT22;6676;45.192;5.722;2023-07-20T08:02:57;23.40;99.90
13223;DHT22;6676;45.192;5.722;2023-07-20T08:05:48;23.50;99.90
13223;DHT22;6676;45.192;5.722;2023-07-20T08:08:39;23.70;99.90
13223;DHT22;6676;45.192;5.722;2023-07-20T08:11:31;23.80;99.90
13223;DHT22;6676;45.192;5.722;2023-07-20T08:14:23;23.80;99.90
13223;DHT22;6676;45.192;5.722;2023-07-20T08:19:57;23.70;99.90
13223;DHT22;6676;45.192;5.722;2023-07-20T08:22:48;23.80;99.90
13223;DHT22;6676;45.192;5.722;2023-07-20T08:28:17;24.00;99.90
13223;DHT22;6676;45.192;5.722;2023-07-20T08:31:09;24.00;99.90
13223;DHT22;6676;45.192;5.722;2023-07-20T08:34:00;24.00;99.90
13223;DHT22;6676;45.192;5.722;2023-07-20T08:36:53;24.00;99.90
13223;DHT22;6676;45.192;5.722;2023-07-20T08:39:44;24.10;99.90
13223;DHT22;6676;45.192;5.722;2023-07-20T08:42:38;24.20;99.90
13223;DHT22;6676;45.192;5.722;2023-07-20T08:45:30;24.30;99.90
13223;DHT22;6676;45.192;5.722;2023-07-20T08:48:23;24.30;99.90
13223;DHT22;6676;45.192;5.722;2023-07-20T08:51:15;24.30;99.90
13223;DHT22;6676;45.192;5.722;2023-07-20T08:54:09;24.40;99.90
13223;DHT22;6676;45.192;5.722;2023-07-20T08:57:02;24.40;99.90
13223;DHT22;6676;45.192;5.722;2023-07-20T09:02:37;24.70;99.90
13223;DHT22;6676;45.192;5.722;2023-07-20T09:08:08;24.90;99.90
13223;DHT22;6676;45.192;5.722;2023-07-20T09:13:41;24.90;99.90
13223;DHT22;6676;45.192;5.722;2023-07-20T09:16:33;24.80;99.90
13223;DHT22;6676;45.192;5.722;2023-07-20T09:22:06;24.90;99.90
13223;DHT22;6676;45.192;5.722;2023-07-20T09:27:40;25.10;99.90
13223;DHT22;6676;45.192;5.722;2023-07-20T09:33:21;25.10;99.90
13223;DHT22;6676;45.192;5.722;2023-07-20T09:36:14;25.20;99.90
13223;DHT22;6676;45.192;5.722;2023-07-20T09:39:07;25.30;99.90
13223;DHT22;6676;45.192;5.722;2023-07-20T09:42:02;25.40;99.90
13223;DHT22;6676;45.192;5.722;2023-07-20T09:44:57;25.60;99.90
13223;DHT22;6676;45.192;5.722;2023-07-20T09:47:48;25.60;99.90
13223;DHT22;6676;45.192;5.722;2023-07-20T09:50:49;25.60;99.90
13223;DHT22;6676;45.192;5.722;2023-07-20T09:53:37;25.60;99.90
13223;DHT22;6676;45.192;5.722;2023-07-20T09:56:29;25.50;99.90
13223;DHT22;6676;45.192;5.722;2023-07-20T09:59:21;25.70;99.90
13223;DHT22;6676;45.192;5.722;2023-07-20T10:04:57;25.80;99.90
13223;DHT22;6676;45.192;5.722;2023-07-20T10:07:51;25.90;99.90
13223;DHT22;6676;45.192;5.722;2023-07-20T10:13:26;26.10;99.90
13223;DHT22;6676;45.192;5.722;2023-07-20T10:16:20;25.80;99.90
13223;DHT22;6676;45.192;5.722;2023-07-20T10:22:00;26.00;99.90
13223;DHT22;6676;45.192;5.722;2023-07-20T10:27:33;26.20;99.90
13223;DHT22;6676;45.192;5.722;2023-07-20T10:33:04;26.40;99.90
13223;DHT22;6676;45.192;5.722;2023-07-20T10:35:57;26.40;99.90
13223;DHT22;6676;45.192;5.722;2023-07-20T10:38:54;26.40;99.90
13223;DHT22;6676;45.192;5.722;2023-07-20T10:41:47;26.60;99.90
13223;DHT22;6676;45.192;5.722;2023-07-20T10:44:40;26.50;99.90
13223;DHT22;6676;45.192;5.722;2023-07-20T10:47:33;26.40;99.90
13223;DHT22;6676;45.192;5.722;2023-07-20T10:50:28;26.50;99.90
13223;DHT22;6676;45.192;5.722;2023-07-20T10:53:21;26.50;99.90
13223;DHT22;6676;45.192;5.722;2023-07-20T10:56:14;26.50;99.90
13223;DHT22;6676;45.192;5.722;2023-07-20T11:01:50;26.60;99.90
13223;DHT22;6676;45.192;5.722;2023-07-20T11:04:45;26.60;99.90
13223;DHT22;6676;45.192;5.722;2023-07-20T11:10:20;26.80;99.90
13223;DHT22;6676;45.192;5.722;2023-07-20T11:13:24;26.80;99.90
13223;DHT22;6676;45.192;5.722;2023-07-20T11:16:18;26.90;99.90
13223;DHT22;6676;45.192;5.722;2023-07-20T11:19:16;26.80;99.90
13223;DHT22;6676;45.192;5.722;2023-07-20T11:22:13;26.90;99.90
13223;DHT22;6676;45.192;5.722;2023-07-20T11:25:07;27.00;99.90
13223;DHT22;6676;45.192;5.722;2023-07-20T11:28:00;27.00;99.90
13223;DHT22;6676;45.192;5.722;2023-07-20T11:30:53;27.10;99.90
13223;DHT22;6676;45.192;5.722;2023-07-20T11:33:45;27.10;99.90
13223;DHT22;6676;45.192;5.722;2023-07-20T11:36:36;27.10;99.90
13223;DHT22;6676;45.192;5.722;2023-07-20T11:39:30;27.20;99.90
13223;DHT22;6676;45.192;5.722;2023-07-20T11:42:22;27.20;99.90
13223;DHT22;6676;45.192;5.722;2023-07-20T11:45:15;27.30;99.90
13223;DHT22;6676;45.192;5.722;2023-07-20T11:48:06;27.40;99.90
13223;DHT22;6676;45.192;5.722;2023-07-20T11:50:58;27.50;99.90
13223;DHT22;6676;45.192;5.722;2023-07-20T11:53:50;27.50;99.90
13223;DHT22;6676;45.192;5.722;2023-07-20T11:56:43;27.60;99.90
13223;DHT22;6676;45.192;5.722;2023-07-20T11:59:36;27.60;99.90
13223;DHT22;6676;45.192;5.722;2023-07-20T12:02:28;27.60;99.90
13223;DHT22;6676;45.192;5.722;2023-07-20T12:05:21;27.60;99.90
13223;DHT22;6676;45.192;5.722;2023-07-20T12:08:13;27.70;99.90
13223;DHT22;6676;45.192;5.722;2023-07-20T12:11:04;27.90;99.90
13223;DHT22;6676;45.192;5.722;2023-07-20T12:13:58;27.90;99.90
13223;DHT22;6676;45.192;5.722;2023-07-20T12:16:54;27.80;99.90
13223;DHT22;6676;45.192;5.722;2023-07-20T12:19:46;27.60;99.90
13223;DHT22;6676;45.192;5.722;2023-07-20T12:22:40;27.80;99.90
13223;DHT22;6676;45.192;5.722;2023-07-20T12:25:38;27.90;99.90
13223;DHT22;6676;45.192;5.722;2023-07-20T12:28:33;28.00;99.90
13223;DHT22;6676;45.192;5.722;2023-07-20T12:31:24;28.20;99.90
13223;DHT22;6676;45.192;5.722;2023-07-20T12:34:17;28.10;99.90
13223;DHT22;6676;45.192;5.722;2023-07-20T12:37:08;28.10;99.90
13223;DHT22;6676;45.192;5.722;2023-07-20T12:40:01;28.20;99.90
13223;DHT22;6676;45.192;5.722;2023-07-20T12:42:52;28.10;99.90
13223;DHT22;6676;45.192;5.722;2023-07-20T12:45:44;27.90;99.90
13223;DHT22;6676;45.192;5.722;2023-07-20T12:48:36;27.90;99.90
13223;DHT22;6676;45.192;5.722;2023-07-20T12:51:30;28.00;99.90
13223;DHT22;6676;45.192;5.722;2023-07-20T12:54:22;28.10;99.90
13223;DHT22;6676;45.192;5.722;2023-07-20T12:57:13;28.10;99.90
13223;DHT22;6676;45.192;5.722;2023-07-20T13:00:07;28.30;99.90
13223;DHT22;6676;45.192;5.722;2023-07-20T13:03:01;28.30;99.90
13223;DHT22;6676;45.192;5.722;2023-07-20T13:05:55;28.30;99.90
13223;DHT22;6676;45.192;5.722;2023-07-20T13:08:49;28.40;99.90
13223;DHT22;6676;45.192;5.722;2023-07-20T13:11:42;28.50;99.90
13223;DHT22;6676;45.192;5.722;2023-07-20T13:14:33;28.50;99.90
13223;DHT22;6676;45.192;5.722;2023-07-20T13:17:25;28.60;99.90
13223;DHT22;6676;45.192;5.722;2023-07-20T13:20:16;28.40;99.90
13223;DHT22;6676;45.192;5.722;2023-07-20T13:23:08;28.30;99.90
13223;DHT22;6676;45.192;5.722;2023-07-20T13:25:59;28.40;99.90
13223;DHT22;6676;45.192;5.722;2023-07-20T13:28:51;28.60;99.90
13223;DHT22;6676;45.192;5.722;2023-07-20T13:31:45;28.70;99.90
13223;DHT22;6676;45.192;5.722;2023-07-20T13:34:38;28.70;99.90
13223;DHT22;6676;45.192;5.722;2023-07-20T13:37:29;28.70;99.90
13223;DHT22;6676;45.192;5.722;2023-07-20T13:40:21;28.80;99.90
13223;DHT22;6676;45.192;5.722;2023-07-20T13:43:13;28.90;99.90
13223;DHT22;6676;45.192;5.722;2023-07-20T13:46:04;28.80;99.90
13223;DHT22;6676;45.192;5.722;2023-07-20T13:48:56;28.80;99.90
13223;DHT22;6676;45.192;5.722;2023-07-20T13:51:48;29.00;99.90
13223;DHT22;6676;45.192;5.722;2023-07-20T13:54:40;29.20;99.90
13223;DHT22;6676;45.192;5.722;2023-07-20T13:57:33;29.30;99.90
13223;DHT22;6676;45.192;5.722;2023-07-20T14:00:24;29.40;99.90
13223;DHT22;6676;45.192;5.722;2023-07-20T14:03:17;29.60;99.70
13223;DHT22;6676;45.192;5.722;2023-07-20T14:06:09;29.90;99.40
13223;DHT22;6676;45.192;5.722;2023-07-20T14:09:03;30.00;98.40
13223;DHT22;6676;45.192;5.722;2023-07-20T14:11:54;30.10;98.10
13223;DHT22;6676;45.192;5.722;2023-07-20T14:14:47;30.40;97.50
13223;DHT22;6676;45.192;5.722;2023-07-20T14:17:38;30.30;97.40
13223;DHT22;6676;45.192;5.722;2023-07-20T14:20:31;30.60;97.20
13223;DHT22;6676;45.192;5.722;2023-07-20T14:23:22;30.70;96.30
13223;DHT22;6676;45.192;5.722;2023-07-20T14:26:15;30.70;96.30
13223;DHT22;6676;45.192;5.722;2023-07-20T14:29:13;31.00;96.10
13223;DHT22;6676;45.192;5.722;2023-07-20T14:32:07;31.30;95.40
13223;DHT22;6676;45.192;5.722;2023-07-20T14:34:58;31.10;95.00
13223;DHT22;6676;45.192;5.722;2023-07-20T14:37:49;31.20;94.90
13223;DHT22;6676;45.192;5.722;2023-07-20T14:40:41;31.50;94.20
13223;DHT22;6676;45.192;5.722;2023-07-20T14:43:32;31.60;93.80
13223;DHT22;6676;45.192;5.722;2023-07-20T14:46:24;31.60;93.70
13223;DHT22;6676;45.192;5.722;2023-07-20T14:49:16;31.60;93.00
13223;DHT22;6676;45.192;5.722;2023-07-20T14:52:08;31.70;92.50
13223;DHT22;6676;45.192;5.722;2023-07-20T14:55:01;31.90;92.10
13223;DHT22;6676;45.192;5.722;2023-07-20T14:57:54;32.00;91.80
13223;DHT22;6676;45.192;5.722;2023-07-20T15:00:49;32.10;91.70
13223;DHT22;6676;45.192;5.722;2023-07-20T15:03:41;32.10;91.20
13223;DHT22;6676;45.192;5.722;2023-07-20T15:06:32;32.20;90.40
13223;DHT22;6676;45.192;5.722;2023-07-20T15:09:24;32.20;90.60
13223;DHT22;6676;45.192;5.722;2023-07-20T15:12:16;32.20;90.10
13223;DHT22;6676;45.192;5.722;2023-07-20T15:15:09;32.20;89.70
13223;DHT22;6676;45.192;5.722;2023-07-20T15:18:01;32.10;89.60
13223;DHT22;6676;45.192;5.722;2023-07-20T15:20:52;32.40;88.90
13223;DHT22;6676;45.192;5.722;2023-07-20T15:23:44;32.30;87.90
13223;DHT22;6676;45.192;5.722;2023-07-20T15:26:36;32.40;87.40
13223;DHT22;6676;45.192;5.722;2023-07-20T15:29:27;32.40;87.20
13223;DHT22;6676;45.192;5.722;2023-07-20T15:32:20;32.60;85.70
13223;DHT22;6676;45.192;5.722;2023-07-20T15:35:12;32.40;86.10
13223;DHT22;6676;45.192;5.722;2023-07-20T15:38:03;32.40;84.70
13223;DHT22;6676;45.192;5.722;2023-07-20T15:40:55;32.50;84.20
13223;DHT22;6676;45.192;5.722;2023-07-20T15:43:48;32.50;83.70
13223;DHT22;6676;45.192;5.722;2023-07-20T15:46:47;32.70;83.00
13223;DHT22;6676;45.192;5.722;2023-07-20T15:49:39;32.70;82.20
13223;DHT22;6676;45.192;5.722;2023-07-20T15:52:31;32.70;82.10
13223;DHT22;6676;45.192;5.722;2023-07-20T15:55:24;33.20;81.10
13223;DHT22;6676;45.192;5.722;2023-07-20T15:58:19;33.00;80.40
13223;DHT22;6676;45.192;5.722;2023-07-20T16:01:10;33.00;80.30
13223;DHT22;6676;45.192;5.722;2023-07-20T16:04:02;33.40;80.10
13223;DHT22;6676;45.192;5.722;2023-07-20T16:09:34;32.80;78.70
13223;DHT22;6676;45.192;5.722;2023-07-20T16:12:26;32.80;79.20
13223;DHT22;6676;45.192;5.722;2023-07-20T16:15:18;32.90;78.80
13223;DHT22;6676;45.192;5.722;2023-07-20T16:18:11;33.40;78.90
13223;DHT22;6676;45.192;5.722;2023-07-20T16:21:02;33.60;76.60
13223;DHT22;6676;45.192;5.722;2023-07-20T16:23:54;33.50;76.60
13223;DHT22;6676;45.192;5.722;2023-07-20T16:26:46;33.30;75.80
13223;DHT22;6676;45.192;5.722;2023-07-20T16:29:37;33.30;75.70
13223;DHT22;6676;45.192;5.722;2023-07-20T16:32:30;33.10;76.30
13223;DHT22;6676;45.192;5.722;2023-07-20T16:35:22;33.10;75.60
13223;DHT22;6676;45.192;5.722;2023-07-20T16:38:15;33.00;75.80
13223;DHT22;6676;45.192;5.722;2023-07-20T16:41:08;33.30;75.10
13223;DHT22;6676;45.192;5.722;2023-07-20T16:43:59;33.30;74.90
13223;DHT22;6676;45.192;5.722;2023-07-20T16:46:52;33.00;75.10
13223;DHT22;6676;45.192;5.722;2023-07-20T16:49:45;32.60;74.90
13223;DHT22;6676;45.192;5.722;2023-07-20T16:52:37;32.90;74.60
13223;DHT22;6676;45.192;5.722;2023-07-20T16:55:28;33.20;74.70
13223;DHT22;6676;45.192;5.722;2023-07-20T16:58:19;32.70;74.30
13223;DHT22;6676;45.192;5.722;2023-07-20T17:01:10;32.40;74.50
13223;DHT22;6676;45.192;5.722;2023-07-20T17:04:02;32.20;75.40
13223;DHT22;6676;45.192;5.722;2023-07-20T17:06:54;31.70;76.10
13223;DHT22;6676;45.192;5.722;2023-07-20T17:09:50;31.00;77.20
13223;DHT22;6676;45.192;5.722;2023-07-20T17:12:42;31.00;76.70
13223;DHT22;6676;45.192;5.722;2023-07-20T17:15:33;31.30;76.40
13223;DHT22;6676;45.192;5.722;2023-07-20T17:18:25;31.40;76.50
13223;DHT22;6676;45.192;5.722;2023-07-20T17:21:17;31.30;76.10
13223;DHT22;6676;45.192;5.722;2023-07-20T17:24:09;31.20;76.20
13223;DHT22;6676;45.192;5.722;2023-07-20T17:27:01;31.20;76.20
13223;DHT22;6676;45.192;5.722;2023-07-20T17:29:54;31.00;76.30
13223;DHT22;6676;45.192;5.722;2023-07-20T17:32:50;30.70;77.10
13223;DHT22;6676;45.192;5.722;2023-07-20T17:35:41;30.40;77.40
13223;DHT22;6676;45.192;5.722;2023-07-20T17:38:33;30.30;77.80
13223;DHT22;6676;45.192;5.722;2023-07-20T17:41:26;29.90;77.90
13223;DHT22;6676;45.192;5.722;2023-07-20T17:44:17;29.80;78.30
13223;DHT22;6676;45.192;5.722;2023-07-20T17:47:09;29.60;78.90
13223;DHT22;6676;45.192;5.722;2023-07-20T17:50:02;29.40;78.70
13223;DHT22;6676;45.192;5.722;2023-07-20T17:52:54;29.30;79.00
13223;DHT22;6676;45.192;5.722;2023-07-20T17:55:47;29.20;79.30
13223;DHT22;6676;45.192;5.722;2023-07-20T17:58:39;29.20;79.50
13223;DHT22;6676;45.192;5.722;2023-07-20T18:01:31;29.10;79.60
13223;DHT22;6676;45.192;5.722;2023-07-20T18:04:22;29.10;79.90
13223;DHT22;6676;45.192;5.722;2023-07-20T18:07:14;29.00;79.80
13223;DHT22;6676;45.192;5.722;2023-07-20T18:10:07;28.90;80.30
13223;DHT22;6676;45.192;5.722;2023-07-20T18:13:00;29.00;79.70
13223;DHT22;6676;45.192;5.722;2023-07-20T18:15:55;29.00;79.80
13223;DHT22;6676;45.192;5.722;2023-07-20T18:18:47;29.10;79.80
13223;DHT22;6676;45.192;5.722;2023-07-20T18:21:38;29.40;79.30
13223;DHT22;6676;45.192;5.722;2023-07-20T18:24:30;29.40;79.30
13223;DHT22;6676;45.192;5.722;2023-07-20T18:27:22;28.90;81.30
13223;DHT22;6676;45.192;5.722;2023-07-20T18:30:13;28.60;81.30
13223;DHT22;6676;45.192;5.722;2023-07-20T18:33:07;28.50;82.00
13223;DHT22;6676;45.192;5.722;2023-07-20T18:35:59;28.40;82.40
13223;DHT22;6676;45.192;5.722;2023-07-20T18:38:50;28.30;83.20
13223;DHT22;6676;45.192;5.722;2023-07-20T18:41:41;28.30;83.20
13223;DHT22;6676;45.192;5.722;2023-07-20T18:44:33;28.20;83.10
13223;DHT22;6676;45.192;5.722;2023-07-20T18:47:25;28.20;83.40
13223;DHT22;6676;45.192;5.722;2023-07-20T18:50:17;28.00;84.00
13223;DHT22;6676;45.192;5.722;2023-07-20T18:53:09;28.00;84.20
13223;DHT22;6676;45.192;5.722;2023-07-20T18:56:00;28.00;84.30
13223;DHT22;6676;45.192;5.722;2023-07-20T18:58:52;27.90;84.50
13223;DHT22;6676;45.192;5.722;2023-07-20T19:01:44;27.80;84.60
13223;DHT22;6676;45.192;5.722;2023-07-20T19:04:37;27.80;85.30
13223;DHT22;6676;45.192;5.722;2023-07-20T19:07:29;27.60;84.80
13223;DHT22;6676;45.192;5.722;2023-07-20T19:10:20;27.50;85.20
13223;DHT22;6676;45.192;5.722;2023-07-20T19:13:12;27.50;85.60
13223;DHT22;6676;45.192;5.722;2023-07-20T19:16:04;27.40;86.00
13223;DHT22;6676;45.192;5.722;2023-07-20T19:18:57;27.30;87.50
13223;DHT22;6676;45.192;5.722;2023-07-20T19:21:49;27.20;88.20
13223;DHT22;6676;45.192;5.722;2023-07-20T19:24:41;27.20;90.10
13223;DHT22;6676;45.192;5.722;2023-07-20T19:27:32;27.10;90.00
13223;DHT22;6676;45.192;5.722;2023-07-20T19:30:23;27.00;90.30
13223;DHT22;6676;45.192;5.722;2023-07-20T19:33:15;27.00;90.50
13223;DHT22;6676;45.192;5.722;2023-07-20T19:36:06;26.90;90.90
13223;DHT22;6676;45.192;5.722;2023-07-20T19:38:57;26.90;91.00
13223;DHT22;6676;45.192;5.722;2023-07-20T19:41:50;26.90;91.50
13223;DHT22;6676;45.192;5.722;2023-07-20T19:44:41;26.80;91.50
13223;DHT22;6676;45.192;5.722;2023-07-20T19:47:32;26.80;91.70
13223;DHT22;6676;45.192;5.722;2023-07-20T19:50:24;26.70;92.60
13223;DHT22;6676;45.192;5.722;2023-07-20T19:53:17;26.60;93.70
13223;DHT22;6676;45.192;5.722;2023-07-20T19:56:19;26.60;93.70
13223;DHT22;6676;45.192;5.722;2023-07-20T19:59:11;26.50;93.60
13223;DHT22;6676;45.192;5.722;2023-07-20T20:02:04;26.60;93.30
13223;DHT22;6676;45.192;5.722;2023-07-20T20:04:55;26.70;93.40
13223;DHT22;6676;45.192;5.722;2023-07-20T20:07:46;26.70;93.50
13223;DHT22;6676;45.192;5.722;2023-07-20T20:10:38;26.60;94.00
13223;DHT22;6676;45.192;5.722;2023-07-20T20:13:31;26.50;94.20
13223;DHT22;6676;45.192;5.722;2023-07-20T20:16:22;26.40;94.70
13223;DHT22;6676;45.192;5.722;2023-07-20T20:19:14;26.30;95.20
13223;DHT22;6676;45.192;5.722;2023-07-20T20:22:06;26.30;95.60
13223;DHT22;6676;45.192;5.722;2023-07-20T20:24:58;26.20;95.80
13223;DHT22;6676;45.192;5.722;2023-07-20T20:27:49;26.10;96.20
13223;DHT22;6676;45.192;5.722;2023-07-20T20:30:41;26.00;96.40